Time;durP1;ratioP1;P1;durP2;ratioP2;P2;SDS_P1;SDS_P2;PMS_P1;PMS_P2;Temp;Humidity;BMP_temperature;BMP_pressure;BME280_temperature;BME280_humidity;BME280_pressure;Samples;Min_cycle;Max_cycle;Signal;HPM_P1;HPM_P2
2021/10/19 00:01:37;;;;;;;26.90;12.15;;;;;;;;;;5068003;28;20032;-65
2021/10/19 00:04:03;;;;;;;12.25;6.47;;;;;;;;;;5055398;28;20028;-66
2021/10/19 00:06:28;;;;;;;25.67;8.75;;;;;;;;;;5052930;28;20025;-66
2021/10/19 00:08:53;;;;;;;22.08;10.25;;;;;;;;;;5050165;28;20021;-67
2021/10/19 00:11:18;;;;;;;19.92;8.05;;;;;;;;;;5050775;28;20549;-66
2021/10/19 00:13:43;;;;;;;11.80;6.13;;;;;;;;;;5057615;28;20432;-66
2021/10/19 00:16:09;;;;;;;21.23;9.70;;;;;;;;;;5055595;28;20029;-67
2021/10/19 00:18:34;;;;;;;24.70;11.52;;;;;;;;;;5059265;28;20285;-64
2021/10/19 00:20:59;;;;;;;24.13;11.40;;;;;;;;;;5056923;28;20021;-66
2021/10/19 00:23:24;;;;;;;21.20;10.43;;;;;;;;;;5059048;28;20060;-65
2021/10/19 00:25:50;;;;;;;23.17;10.73;;;;;;;;;;5054070;28;20063;-65
2021/10/19 00:28:15;;;;;;;19.00;8.27;;;;;;;;;;5058069;28;20261;-64
2021/10/19 00:30:40;;;;;;;21.38;11.13;;;;;;;;;;5062054;28;20048;-65
2021/10/19 00:33:05;;;;;;;24.60;11.65;;;;;;;;;;5053815;28;20045;-65
2021/10/19 00:35:30;;;;;;;22.63;9.10;;;;;;;;;;5052752;28;20111;-65
2021/10/19 00:37:56;;;;;;;14.03;6.47;;;;;;;;;;5067899;28;20092;-65
2021/10/19 00:40:21;;;;;;;26.50;10.60;;;;;;;;;;5068822;28;20327;-64
2021/10/19 00:42:46;;;;;;;10.63;5.22;;;;;;;;;;5070502;28;20524;-64
2021/10/19 00:45:11;;;;;;;20.83;8.68;;;;;;;;;;5072816;28;20029;-65
2021/10/19 00:47:46;;;;;;;16.45;7.75;;;;;;;;;;5070930;28;20024;-64
2021/10/19 00:50:11;;;;;;;22.48;11.38;;;;;;;;;;5052843;28;20020;-64
2021/10/19 00:52:36;;;;;;;25.25;11.85;;;;;;;;;;5053260;28;20409;-66
2021/10/19 00:55:03;;;;;;;13.55;6.63;;;;;;;;;;5053800;28;20017;-65
2021/10/19 00:57:28;;;;;;;26.83;11.18;;;;;;;;;;5052699;28;20056;-65
2021/10/19 00:59:54;;;;;;;18.90;10.27;;;;;;;;;;5061101;28;20486;-64
2021/10/19 01:02:19;;;;;;;25.50;10.77;;;;;;;;;;5072300;28;20493;-65
2021/10/19 01:04:44;;;;;;;21.83;9.77;;;;;;;;;;5059213;28;20283;-65
2021/10/19 01:07:10;;;;;;;20.42;9.85;;;;;;;;;;5053669;28;20263;-65
2021/10/19 01:09:38;;;;;;;22.63;9.75;;;;;;;;;;5060630;28;20027;-65
2021/10/19 01:12:07;;;;;;;25.67;11.98;;;;;;;;;;5052289;28;20036;-65
2021/10/19 01:14:32;;;;;;;22.25;10.52;;;;;;;;;;5053363;28;20025;-64
2021/10/19 01:16:57;;;;;;;23.95;8.85;;;;;;;;;;5070482;28;20097;-65
2021/10/19 01:19:23;;;;;;;19.60;9.38;;;;;;;;;;5062019;28;20020;-65
2021/10/19 01:21:50;;;;;;;17.10;8.77;;;;;;;;;;5058304;28;20060;-65
2021/10/19 01:24:15;;;;;;;27.00;11.27;;;;;;;;;;5070885;28;20086;-66
2021/10/19 01:26:40;;;;;;;22.87;12.07;;;;;;;;;;5052342;28;20013;-66
2021/10/19 01:29:05;;;;;;;26.60;11.63;;;;;;;;;;5057423;28;20262;-66
2021/10/19 01:31:30;;;;;;;22.50;9.77;;;;;;;;;;5062751;28;20276;-64
2021/10/19 01:33:56;;;;;;;20.15;9.85;;;;;;;;;;5051108;28;20260;-67
2021/10/19 01:36:21;;;;;;;20.80;11.45;;;;;;;;;;5052941;28;20055;-65
2021/10/19 01:38:46;;;;;;;19.30;8.53;;;;;;;;;;5066438;28;20070;-64
2021/10/19 01:41:11;;;;;;;15.30;7.60;;;;;;;;;;5061028;28;20272;-65
2021/10/19 01:43:36;;;;;;;13.88;7.32;;;;;;;;;;5051393;28;20032;-64
2021/10/19 01:46:02;;;;;;;17.90;6.63;;;;;;;;;;5067418;28;20043;-64
2021/10/19 01:48:28;;;;;;;12.32;6.90;;;;;;;;;;5058735;28;20302;-65
2021/10/19 01:50:53;;;;;;;27.42;11.45;;;;;;;;;;5060092;28;20017;-66
2021/10/19 01:53:19;;;;;;;22.77;10.65;;;;;;;;;;5050758;28;20671;-64
2021/10/19 01:55:44;;;;;;;15.85;6.47;;;;;;;;;;5050314;28;20052;-64
2021/10/19 01:58:10;;;;;;;18.38;8.27;;;;;;;;;;5050136;28;20025;-64
2021/10/19 02:00:36;;;;;;;19.02;8.85;;;;;;;;;;5063598;28;20028;-65
2021/10/19 02:03:08;;;;;;;20.58;9.77;;;;;;;;;;5069454;28;20499;-64
2021/10/19 02:05:34;;;;;;;17.95;7.93;;;;;;;;;;5048103;28;20107;-65
2021/10/19 02:08:03;;;;;;;19.92;8.50;;;;;;;;;;5065717;28;20099;-65
2021/10/19 02:10:28;;;;;;;14.98;6.13;;;;;;;;;;5065453;28;20138;-64
2021/10/19 02:12:53;;;;;;;22.98;9.55;;;;;;;;;;5057204;28;20071;-64
2021/10/19 02:15:21;;;;;;;23.63;9.73;;;;;;;;;;5052545;28;20381;-65
2021/10/19 02:17:46;;;;;;;22.85;11.07;;;;;;;;;;5052063;28;20271;-65
2021/10/19 02:20:11;;;;;;;11.23;5.57;;;;;;;;;;5051967;28;20100;-65
2021/10/19 02:22:37;;;;;;;8.38;5.32;;;;;;;;;;5061833;28;20267;-64
2021/10/19 02:25:02;;;;;;;22.88;11.98;;;;;;;;;;5050885;28;20079;-64
2021/10/19 02:27:27;;;;;;;32.58;15.68;;;;;;;;;;5051884;28;20028;-65
2021/10/19 02:29:53;;;;;;;32.28;13.48;;;;;;;;;;5068860;28;20020;-66
2021/10/19 02:32:18;;;;;;;26.03;12.70;;;;;;;;;;5051755;28;20545;-64
2021/10/19 02:34:44;;;;;;;26.98;12.18;;;;;;;;;;5067404;28;20285;-65
2021/10/19 02:37:09;;;;;;;23.27;12.52;;;;;;;;;;5068896;28;20385;-65
2021/10/19 02:39:34;;;;;;;19.42;8.00;;;;;;;;;;5052625;28;20095;-65
2021/10/19 02:41:59;;;;;;;25.38;12.43;;;;;;;;;;5057190;28;20419;-64
2021/10/19 02:44:25;;;;;;;16.20;6.40;;;;;;;;;;5054216;28;20032;-64
2021/10/19 02:46:50;;;;;;;31.20;14.60;;;;;;;;;;5051111;28;20017;-65
2021/10/19 02:49:15;;;;;;;30.92;13.82;;;;;;;;;;5054732;28;20584;-64
2021/10/19 02:51:40;;;;;;;26.48;11.60;;;;;;;;;;5050642;28;20484;-65
2021/10/19 02:54:05;;;;;;;31.20;15.43;;;;;;;;;;5056468;28;20101;-66
2021/10/19 02:56:31;;;;;;;29.25;12.75;;;;;;;;;;5070564;28;20024;-66
2021/10/19 02:58:56;;;;;;;27.17;13.45;;;;;;;;;;5067922;28;20020;-65
2021/10/19 03:01:21;;;;;;;29.73;14.27;;;;;;;;;;5054601;28;20074;-65
2021/10/19 03:03:46;;;;;;;33.53;15.68;;;;;;;;;;5059489;28;20032;-65
2021/10/19 03:06:12;;;;;;;28.25;12.32;;;;;;;;;;5050176;28;20017;-65
2021/10/19 03:08:37;;;;;;;21.27;10.65;;;;;;;;;;5059131;28;20048;-64
2021/10/19 03:11:02;;;;;;;22.10;11.63;;;;;;;;;;5067557;28;20104;-65
2021/10/19 03:13:28;;;;;;;14.50;7.18;;;;;;;;;;5049786;28;20748;-67
2021/10/19 03:15:54;;;;;;;23.17;9.82;;;;;;;;;;5068524;28;20491;-67
2021/10/19 03:18:19;;;;;;;36.28;15.98;;;;;;;;;;5068660;28;20021;-67
2021/10/19 03:20:44;;;;;;;22.55;10.55;;;;;;;;;;5065745;28;20017;-65
2021/10/19 03:23:10;;;;;;;24.20;12.30;;;;;;;;;;5049487;28;20500;-67
2021/10/19 03:25:35;;;;;;;17.87;9.30;;;;;;;;;;5065818;28;20393;-66
2021/10/19 03:28:00;;;;;;;23.38;10.60;;;;;;;;;;5068354;28;20383;-67
2021/10/19 03:30:25;;;;;;;20.43;8.77;;;;;;;;;;5053915;28;20478;-66
2021/10/19 03:32:50;;;;;;;15.18;8.02;;;;;;;;;;5050180;28;20306;-67
2021/10/19 03:35:16;;;;;;;37.25;18.63;;;;;;;;;;5061578;28;20111;-66
2021/10/19 03:37:41;;;;;;;24.33;12.07;;;;;;;;;;5050513;28;20228;-66
2021/10/19 03:40:06;;;;;;;29.00;11.63;;;;;;;;;;5053916;28;20020;-66
2021/10/19 03:42:32;;;;;;;18.13;7.95;;;;;;;;;;5067683;28;20266;-67
2021/10/19 03:44:57;;;;;;;31.70;13.82;;;;;;;;;;5049612;28;20059;-66
2021/10/19 03:47:22;;;;;;;16.83;8.40;;;;;;;;;;5051137;28;20032;-67
2021/10/19 03:49:47;;;;;;;24.50;10.57;;;;;;;;;;5061542;28;20620;-66
2021/10/19 03:52:13;;;;;;;34.90;17.58;;;;;;;;;;5051637;28;20418;-66
2021/10/19 03:54:38;;;;;;;38.57;19.67;;;;;;;;;;5055211;28;20493;-66
2021/10/19 03:57:05;;;;;;;24.30;12.50;;;;;;;;;;5050784;28;20356;-66
2021/10/19 03:59:30;;;;;;;12.65;6.55;;;;;;;;;;5070066;28;20131;-66
2021/10/19 04:01:56;;;;;;;34.83;16.77;;;;;;;;;;5061169;28;20501;-64
2021/10/19 04:04:21;;;;;;;37.45;16.48;;;;;;;;;;5053411;28;20045;-65
2021/10/19 04:06:46;;;;;;;33.47;15.90;;;;;;;;;;5054514;28;20021;-64
2021/10/19 04:09:11;;;;;;;40.20;16.98;;;;;;;;;;5056195;28;20105;-64
2021/10/19 04:11:37;;;;;;;29.98;14.00;;;;;;;;;;5068055;28;20021;-65
2021/10/19 04:14:02;;;;;;;41.20;19.80;;;;;;;;;;5064730;28;20524;-65
2021/10/19 04:16:27;;;;;;;34.45;15.60;;;;;;;;;;5060237;28;20274;-66
2021/10/19 04:18:52;;;;;;;42.23;19.87;;;;;;;;;;5069795;28;20059;-65
2021/10/19 04:21:17;;;;;;;28.50;12.83;;;;;;;;;;5053287;28;20607;-64
2021/10/19 04:23:43;;;;;;;37.73;18.67;;;;;;;;;;5060130;28;20331;-65
2021/10/19 04:26:08;;;;;;;36.60;16.27;;;;;;;;;;5064425;28;20270;-67
2021/10/19 04:28:33;;;;;;;35.47;16.20;;;;;;;;;;5052282;28;20012;-67
2021/10/19 04:30:58;;;;;;;40.35;18.35;;;;;;;;;;5052596;28;20024;-66
2021/10/19 04:33:24;;;;;;;29.42;13.45;;;;;;;;;;5035396;28;20619;-68
2021/10/19 04:35:49;;;;;;;38.57;15.10;;;;;;;;;;5052541;28;20017;-66
2021/10/19 04:38:14;;;;;;;25.02;11.57;;;;;;;;;;5052175;28;20283;-65
2021/10/19 04:40:39;;;;;;;27.38;12.48;;;;;;;;;;5052782;28;20037;-68
2021/10/19 04:43:04;;;;;;;39.20;16.67;;;;;;;;;;5051968;28;20032;-65
2021/10/19 04:45:30;;;;;;;23.48;10.13;;;;;;;;;;5052178;28;20096;-67
2021/10/19 04:47:56;;;;;;;32.90;15.23;;;;;;;;;;5052339;28;20040;-65
2021/10/19 04:50:21;;;;;;;18.20;8.65;;;;;;;;;;5052452;28;20020;-65
2021/10/19 04:52:46;;;;;;;23.42;11.98;;;;;;;;;;5051933;28;20025;-67
2021/10/19 04:55:11;;;;;;;22.52;9.30;;;;;;;;;;5051710;28;20432;-68
2021/10/19 04:57:37;;;;;;;33.17;12.98;;;;;;;;;;5052139;28;20477;-67
2021/10/19 05:00:03;;;;;;;24.70;11.60;;;;;;;;;;5051195;28;20036;-67
2021/10/19 05:02:28;;;;;;;40.08;17.38;;;;;;;;;;5052086;28;20107;-68
2021/10/19 05:04:53;;;;;;;32.88;13.77;;;;;;;;;;5051025;28;20100;-68
2021/10/19 05:07:18;;;;;;;26.02;10.70;;;;;;;;;;5052225;28;20024;-68
2021/10/19 05:09:44;;;;;;;22.27;10.37;;;;;;;;;;5052753;28;20032;-67
2021/10/19 05:12:09;;;;;;;25.33;10.90;;;;;;;;;;5067420;28;20362;-68
2021/10/19 05:14:34;;;;;;;22.95;8.75;;;;;;;;;;5068451;28;20024;-65
2021/10/19 05:17:00;;;;;;;34.20;13.82;;;;;;;;;;5051979;28;20028;-64
2021/10/19 05:19:25;;;;;;;29.73;13.18;;;;;;;;;;5053311;28;20066;-64
2021/10/19 05:21:50;;;;;;;23.95;11.15;;;;;;;;;;5051836;28;20489;-64
2021/10/19 05:24:15;;;;;;;37.23;17.97;;;;;;;;;;5051160;28;20481;-64
2021/10/19 05:26:40;;;;;;;40.63;20.13;;;;;;;;;;5060185;28;20302;-64
2021/10/19 05:29:06;;;;;;;24.90;12.10;;;;;;;;;;5070175;28;20500;-64
2021/10/19 05:31:31;;;;;;;32.17;13.57;;;;;;;;;;5071087;28;20277;-64
2021/10/19 05:33:56;;;;;;;32.13;11.90;;;;;;;;;;5054528;28;20388;-64
2021/10/19 05:36:21;;;;;;;20.45;8.07;;;;;;;;;;5070028;28;20115;-65
2021/10/19 05:38:48;;;;;;;34.80;14.00;;;;;;;;;;5058622;28;20020;-65
2021/10/19 05:41:16;;;;;;;32.42;14.57;;;;;;;;;;5071420;28;20012;-66
2021/10/19 05:43:41;;;;;;;22.95;11.60;;;;;;;;;;5056183;28;20466;-64
2021/10/19 05:46:06;;;;;;;24.10;11.00;;;;;;;;;;5066055;28;20040;-64
2021/10/19 05:48:31;;;;;;;37.13;16.27;;;;;;;;;;5052706;28;20260;-65
2021/10/19 05:50:57;;;;;;;29.52;11.68;;;;;;;;;;5051272;28;20017;-64
2021/10/19 05:53:22;;;;;;;21.30;9.55;;;;;;;;;;5059651;28;20095;-65
2021/10/19 05:55:47;;;;;;;21.90;10.38;;;;;;;;;;5045230;28;20049;-65
2021/10/19 05:58:12;;;;;;;21.47;8.70;;;;;;;;;;5048795;28;20065;-65
2021/10/19 06:00:37;;;;;;;19.23;10.00;;;;;;;;;;5049377;28;20734;-64
2021/10/19 06:03:03;;;;;;;21.33;10.93;;;;;;;;;;5048886;28;20267;-65
2021/10/19 06:05:28;;;;;;;30.27;13.60;;;;;;;;;;5048763;28;20472;-66
2021/10/19 06:07:54;;;;;;;17.67;8.70;;;;;;;;;;5048299;28;20332;-66
2021/10/19 06:10:21;;;;;;;35.60;14.88;;;;;;;;;;5048989;28;20101;-65
2021/10/19 06:12:47;;;;;;;31.05;10.75;;;;;;;;;;5047921;28;20032;-65
2021/10/19 06:15:14;;;;;;;32.03;14.38;;;;;;;;;;5045139;28;20029;-67
2021/10/19 06:17:39;;;;;;;19.98;8.23;;;;;;;;;;5045876;28;20524;-65
2021/10/19 06:20:05;;;;;;;22.48;10.18;;;;;;;;;;5052313;28;20120;-64
2021/10/19 06:22:30;;;;;;;31.60;14.95;;;;;;;;;;5051712;28;20043;-64
2021/10/19 06:24:55;;;;;;;26.88;12.85;;;;;;;;;;5051054;28;20029;-65
2021/10/19 06:27:21;;;;;;;23.45;10.15;;;;;;;;;;5050983;28;20105;-67
2021/10/19 06:29:46;;;;;;;30.98;14.82;;;;;;;;;;5064634;28;20027;-66
2021/10/19 06:32:11;;;;;;;24.98;10.88;;;;;;;;;;5062732;28;20501;-66
2021/10/19 06:34:36;;;;;;;19.95;9.05;;;;;;;;;;5059230;28;20020;-66
2021/10/19 06:37:01;;;;;;;17.77;8.00;;;;;;;;;;5066248;28;20043;-65
2021/10/19 06:39:27;;;;;;;15.38;7.00;;;;;;;;;;5054454;28;20295;-66
2021/10/19 06:41:52;;;;;;;15.13;6.70;;;;;;;;;;5052470;28;20047;-66
2021/10/19 06:44:17;;;;;;;12.50;6.88;;;;;;;;;;5049948;28;20021;-66
2021/10/19 06:46:42;;;;;;;13.90;6.15;;;;;;;;;;5049100;28;20020;-67
2021/10/19 06:49:07;;;;;;;18.85;9.82;;;;;;;;;;5049645;28;20474;-66
2021/10/19 06:51:33;;;;;;;7.47;3.65;;;;;;;;;;5050251;28;20470;-64
2021/10/19 06:53:58;;;;;;;17.80;8.25;;;;;;;;;;5049955;28;20488;-66
2021/10/19 06:56:23;;;;;;;26.00;10.13;;;;;;;;;;5050533;28;20401;-64
2021/10/19 06:58:48;;;;;;;18.80;9.98;;;;;;;;;;5050382;28;20263;-66
2021/10/19 07:01:15;;;;;;;10.10;4.60;;;;;;;;;;5050617;28;20082;-65
2021/10/19 07:03:41;;;;;;;13.07;6.10;;;;;;;;;;5054362;28;20021;-65
2021/10/19 07:06:06;;;;;;;15.70;6.22;;;;;;;;;;5062741;28;20453;-65
2021/10/19 07:08:34;;;;;;;12.93;6.78;;;;;;;;;;5061347;28;20511;-65
2021/10/19 07:11:00;;;;;;;11.10;6.18;;;;;;;;;;5069657;28;20028;-64
2021/10/19 07:13:25;;;;;;;11.23;5.10;;;;;;;;;;5068342;28;20024;-67
2021/10/19 07:15:54;;;;;;;18.25;8.80;;;;;;;;;;5062901;28;20108;-67
2021/10/19 07:18:20;;;;;;;14.07;6.80;;;;;;;;;;5057342;28;20020;-67
2021/10/19 07:20:45;;;;;;;13.35;6.57;;;;;;;;;;5066029;28;20158;-66
2021/10/19 07:23:10;;;;;;;15.05;5.57;;;;;;;;;;5064652;28;20059;-64
2021/10/19 07:25:35;;;;;;;16.70;7.40;;;;;;;;;;5061327;28;20109;-65
2021/10/19 07:28:00;;;;;;;15.70;7.40;;;;;;;;;;5052946;28;20474;-65
2021/10/19 07:30:26;;;;;;;8.40;5.63;;;;;;;;;;5050933;28;20264;-64
2021/10/19 07:32:52;;;;;;;12.63;6.82;;;;;;;;;;5047335;28;20268;-65
2021/10/19 07:35:18;;;;;;;10.55;6.28;;;;;;;;;;5057564;28;20029;-65
2021/10/19 07:37:43;;;;;;;10.27;5.47;;;;;;;;;;5068533;28;20428;-65
2021/10/19 07:40:09;;;;;;;13.02;7.68;;;;;;;;;;5062188;28;20021;-64
2021/10/19 07:42:35;;;;;;;14.50;4.40;;;;;;;;;;5061736;28;20056;-64
2021/10/19 07:45:04;;;;;;;10.40;4.97;;;;;;;;;;5057979;28;20020;-65
2021/10/19 07:47:29;;;;;;;5.07;2.40;;;;;;;;;;5061061;28;20480;-64
2021/10/19 07:49:55;;;;;;;10.40;4.87;;;;;;;;;;5072804;28;20104;-64
2021/10/19 07:52:20;;;;;;;5.30;2.58;;;;;;;;;;5071532;28;20263;-64
2021/10/19 07:54:45;;;;;;;12.33;4.97;;;;;;;;;;5064944;28;20025;-64
2021/10/19 07:57:10;;;;;;;8.18;4.43;;;;;;;;;;5069668;28;20681;-64
2021/10/19 07:59:35;;;;;;;6.22;3.60;;;;;;;;;;5055693;28;20239;-64
2021/10/19 08:02:01;;;;;;;8.07;4.00;;;;;;;;;;5059312;28;20042;-65
2021/10/19 08:04:26;;;;;;;14.50;4.32;;;;;;;;;;5071317;28;20327;-64
2021/10/19 08:06:51;;;;;;;10.43;5.20;;;;;;;;;;5073230;28;20044;-64
2021/10/19 08:09:16;;;;;;;5.03;2.97;;;;;;;;;;5064033;28;20021;-64
2021/10/19 08:11:41;;;;;;;7.32;4.20;;;;;;;;;;5053813;28;20442;-64
2021/10/19 08:14:07;;;;;;;9.43;5.78;;;;;;;;;;5059128;28;20032;-67
2021/10/19 08:16:32;;;;;;;7.50;4.17;;;;;;;;;;5060480;28;20293;-66
2021/10/19 08:18:57;;;;;;;6.80;4.13;;;;;;;;;;5052499;28;20263;-66
2021/10/19 08:21:22;;;;;;;5.43;3.80;;;;;;;;;;5062225;28;20310;-65
2021/10/19 08:23:48;;;;;;;8.38;4.85;;;;;;;;;;5064229;28;20044;-65
2021/10/19 08:26:13;;;;;;;8.85;5.25;;;;;;;;;;5058016;28;20021;-65
2021/10/19 08:28:47;;;;;;;6.22;3.83;;;;;;;;;;5071217;28;20017;-64
2021/10/19 08:31:14;;;;;;;6.63;3.33;;;;;;;;;;5066108;28;20032;-65
2021/10/19 08:33:39;;;;;;;8.80;4.63;;;;;;;;;;5054042;28;20047;-64
2021/10/19 08:36:05;;;;;;;7.68;4.35;;;;;;;;;;5065078;28;20020;-64
2021/10/19 08:38:30;;;;;;;4.78;2.83;;;;;;;;;;5052305;28;20033;-67
2021/10/19 08:40:56;;;;;;;8.20;3.22;;;;;;;;;;5036382;28;20021;-64
2021/10/19 08:43:22;;;;;;;5.05;3.70;;;;;;;;;;5049978;28;20040;-67
2021/10/19 08:45:47;;;;;;;8.52;4.20;;;;;;;;;;5051536;28;20033;-65
2021/10/19 08:48:12;;;;;;;6.57;4.05;;;;;;;;;;5051988;28;20020;-66
2021/10/19 08:50:37;;;;;;;6.55;3.10;;;;;;;;;;5051872;28;20465;-64
2021/10/19 08:53:03;;;;;;;7.45;4.07;;;;;;;;;;5051651;28;20013;-64
2021/10/19 08:55:28;;;;;;;5.28;3.22;;;;;;;;;;5050852;28;20449;-64
2021/10/19 08:57:56;;;;;;;6.23;3.47;;;;;;;;;;5044836;28;20031;-64
2021/10/19 09:00:24;;;;;;;8.02;4.00;;;;;;;;;;5061451;28;20267;-66
2021/10/19 09:02:49;;;;;;;6.30;2.78;;;;;;;;;;5067770;28;20024;-65
2021/10/19 09:05:16;;;;;;;7.45;4.70;;;;;;;;;;5052421;28;20116;-65
2021/10/19 09:07:56;;;;;;;5.88;3.03;;;;;;;;;;5069112;28;20024;-65
2021/10/19 09:10:21;;;;;;;;;;;;;;;;;;5066496;28;20020;-65
2021/10/19 09:13:00;;;;;;;5.03;2.53;;;;;;;;;;5052288;28;19915;-67
2021/10/19 09:15:26;;;;;;;7.57;4.10;;;;;;;;;;5053594;28;20275;-65
2021/10/19 09:17:52;;;;;;;10.27;2.70;;;;;;;;;;5052151;28;20067;-65
2021/10/19 09:20:18;;;;;;;4.80;3.22;;;;;;;;;;5064826;28;20381;-64
2021/10/19 09:22:53;;;;;;;5.13;2.65;;;;;;;;;;5053294;28;20036;-68
2021/10/19 09:25:25;;;;;;;5.47;3.45;;;;;;;;;;5052980;28;20021;-64
2021/10/19 09:27:52;;;;;;;4.20;2.97;;;;;;;;;;5070983;28;20052;-67
2021/10/19 09:30:17;;;;;;;6.70;2.90;;;;;;;;;;5068676;28;20397;-64
2021/10/19 09:32:49;;;;;;;6.70;3.20;;;;;;;;;;5068886;28;20103;-64
2021/10/19 09:35:21;;;;;;;6.53;3.78;;;;;;;;;;5051554;28;20029;-65
2021/10/19 09:37:54;;;;;;;3.17;1.50;;;;;;;;;;5053056;28;20033;-67
2021/10/19 09:40:28;;;;;;;4.03;2.70;;;;;;;;;;5060557;28;20047;-64
2021/10/19 09:42:57;;;;;;;5.78;3.35;;;;;;;;;;5051327;28;20529;-64
2021/10/19 09:45:24;;;;;;;6.10;2.75;;;;;;;;;;5052460;28;20488;-64
2021/10/19 09:47:50;;;;;;;5.43;2.63;;;;;;;;;;5069557;28;20032;-66
2021/10/19 09:50:16;;;;;;;8.52;4.15;;;;;;;;;;5060319;28;20070;-67
2021/10/19 09:52:43;;;;;;;5.57;2.58;;;;;;;;;;5071013;28;20020;-65
2021/10/19 09:55:12;;;;;;;4.93;2.80;;;;;;;;;;5058519;28;20021;-65
2021/10/19 09:57:42;;;;;;;5.15;2.47;;;;;;;;;;5055263;28;20033;-65
2021/10/19 10:00:08;;;;;;;5.13;3.45;;;;;;;;;;5067957;28;20063;-65
2021/10/19 10:02:33;;;;;;;7.43;2.95;;;;;;;;;;5052324;28;20441;-64
2021/10/19 10:05:00;;;;;;;4.82;2.95;;;;;;;;;;5051930;28;20055;-64
2021/10/19 10:07:30;;;;;;;5.25;3.25;;;;;;;;;;5049911;28;20048;-65
2021/10/19 10:09:56;;;;;;;6.78;3.28;;;;;;;;;;5051148;28;20100;-65
2021/10/19 10:12:28;;;;;;;5.88;3.10;;;;;;;;;;5064588;28;20500;-64
2021/10/19 10:14:53;;;;;;;7.07;2.95;;;;;;;;;;5064259;28;20021;-64
2021/10/19 10:17:18;;;;;;;8.85;4.15;;;;;;;;;;5067619;28;20178;-65
2021/10/19 10:19:43;;;;;;;6.10;3.80;;;;;;;;;;5052894;28;20033;-67
2021/10/19 10:22:15;;;;;;;6.55;3.00;;;;;;;;;;5060569;28;20029;-65
2021/10/19 10:24:42;;;;;;;6.72;2.80;;;;;;;;;;5059610;28;20028;-65
2021/10/19 10:27:16;;;;;;;5.65;2.88;;;;;;;;;;5052170;28;20024;-65
2021/10/19 10:29:47;;;;;;;4.68;2.53;;;;;;;;;;5059380;28;20024;-65
2021/10/19 10:32:39;;;;;;;4.63;2.75;;;;;;;;;;5069574;28;20028;-65
2021/10/19 10:35:04;;;;;;;6.22;3.15;;;;;;;;;;5047232;28;20064;-66
2021/10/19 10:37:35;;;;;;;4.35;2.20;;;;;;;;;;5051279;28;20490;-64
2021/10/19 10:40:00;;;;;;;6.07;3.85;;;;;;;;;;5051067;28;20108;-65
2021/10/19 10:42:33;;;;;;;6.78;3.47;;;;;;;;;;5054517;28;20120;-66
2021/10/19 10:44:58;;;;;;;5.65;3.55;;;;;;;;;;5060617;28;20040;-67
2021/10/19 10:47:25;;;;;;;6.25;4.20;;;;;;;;;;5051748;28;20017;-64
2021/10/19 10:49:50;;;;;;;10.05;4.10;;;;;;;;;;5050334;28;20036;-66
2021/10/19 10:52:18;;;;;;;7.25;4.55;;;;;;;;;;5062172;28;20024;-65
2021/10/19 10:54:53;;;;;;;6.88;3.58;;;;;;;;;;5050866;28;20025;-68
2021/10/19 10:57:18;;;;;;;11.90;4.03;;;;;;;;;;5055153;28;20025;-68
2021/10/19 10:59:50;;;;;;;9.27;4.07;;;;;;;;;;5058822;28;20499;-68
2021/10/19 11:02:16;;;;;;;7.55;4.50;;;;;;;;;;5059318;28;20028;-68
2021/10/19 11:04:51;;;;;;;8.20;3.88;;;;;;;;;;5068769;28;20043;-66
2021/10/19 11:07:29;;;;;;;5.93;4.50;;;;;;;;;;5057160;28;20019;-65
2021/10/19 11:09:55;;;;;;;4.57;2.38;;;;;;;;;;5061993;28;20040;-65
2021/10/19 11:12:20;;;;;;;8.07;4.47;;;;;;;;;;5055815;28;20048;-65
2021/10/19 11:14:46;;;;;;;4.25;2.72;;;;;;;;;;5051087;28;20029;-67
2021/10/19 11:17:12;;;;;;;13.82;3.53;;;;;;;;;;5049033;28;20035;-65
2021/10/19 11:19:37;;;;;;;5.90;3.70;;;;;;;;;;5055446;28;20024;-64
2021/10/19 11:22:04;;;;;;;3.63;2.60;;;;;;;;;;5053026;28;20403;-65
2021/10/19 11:24:30;;;;;;;8.93;3.90;;;;;;;;;;5051124;28;20047;-65
2021/10/19 11:26:56;;;;;;;4.35;2.33;;;;;;;;;;5059763;28;20020;-65
2021/10/19 11:29:22;;;;;;;8.07;3.45;;;;;;;;;;5062953;28;20036;-67
2021/10/19 11:31:48;;;;;;;6.95;4.13;;;;;;;;;;5063879;28;20029;-68
2021/10/19 11:34:13;;;;;;;8.00;3.92;;;;;;;;;;5068012;28;20496;-67
2021/10/19 11:36:38;;;;;;;6.28;3.67;;;;;;;;;;5068109;28;20016;-66
2021/10/19 11:39:12;;;;;;;6.47;4.32;;;;;;;;;;5056455;28;20012;-67
2021/10/19 11:41:37;;;;;;;8.50;3.78;;;;;;;;;;5051145;28;20017;-67
2021/10/19 11:44:04;;;;;;;5.85;3.13;;;;;;;;;;5057546;28;20388;-66
2021/10/19 11:46:30;;;;;;;9.23;4.47;;;;;;;;;;5059624;28;20036;-66
2021/10/19 11:48:58;;;;;;;4.15;1.95;;;;;;;;;;5050303;28;20423;-67
2021/10/19 11:51:24;;;;;;;5.40;2.95;;;;;;;;;;5061669;28;20074;-66
2021/10/19 11:53:50;;;;;;;7.85;3.55;;;;;;;;;;5054464;28;20420;-66
2021/10/19 11:56:15;;;;;;;3.92;1.73;;;;;;;;;;5054375;28;20025;-66
2021/10/19 11:58:47;;;;;;;9.07;4.28;;;;;;;;;;5051042;28;20418;-67
2021/10/19 12:01:12;;;;;;;14.35;3.38;;;;;;;;;;5067168;28;20031;-66
2021/10/19 12:03:38;;;;;;;6.45;2.65;;;;;;;;;;5056487;28;20384;-66
2021/10/19 12:06:08;;;;;;;7.83;4.20;;;;;;;;;;5049466;28;20033;-67
2021/10/19 12:08:33;;;;;;;6.43;3.85;;;;;;;;;;5050951;28;20271;-66
2021/10/19 12:11:08;;;;;;;5.10;3.77;;;;;;;;;;5056661;28;20032;-67
2021/10/19 12:13:34;;;;;;;7.22;3.72;;;;;;;;;;5059385;28;20787;-65
2021/10/19 12:16:00;;;;;;;5.82;3.78;;;;;;;;;;5050673;28;20075;-65
2021/10/19 12:18:26;;;;;;;8.07;4.22;;;;;;;;;;5055256;28;20499;-66
2021/10/19 12:20:51;;;;;;;6.45;4.15;;;;;;;;;;5066224;28;20091;-64
2021/10/19 12:23:18;;;;;;;6.68;3.58;;;;;;;;;;5064236;28;20043;-64
2021/10/19 12:25:44;;;;;;;5.75;3.95;;;;;;;;;;5062815;28;20025;-64
2021/10/19 12:28:20;;;;;;;4.88;3.22;;;;;;;;;;5051758;28;20037;-64
2021/10/19 12:30:47;;;;;;;5.18;3.08;;;;;;;;;;5051973;28;20024;-64
2021/10/19 12:33:17;;;;;;;10.65;3.88;;;;;;;;;;5051977;28;20134;-64
2021/10/19 12:36:11;;;;;;;7.70;3.15;;;;;;;;;;5053419;28;20009;-64
2021/10/19 12:38:38;;;;;;;9.88;3.45;;;;;;;;;;5054151;28;20036;-66
2021/10/19 12:41:06;;;;;;;6.30;3.80;;;;;;;;;;5068989;28;20455;-65
2021/10/19 12:43:31;;;;;;;8.80;4.07;;;;;;;;;;5062740;28;20028;-65
2021/10/19 12:45:57;;;;;;;7.15;3.75;;;;;;;;;;5053496;28;20021;-66
2021/10/19 12:48:22;;;;;;;5.35;3.50;;;;;;;;;;5053972;28;20021;-65
2021/10/19 12:50:47;;;;;;;7.30;2.50;;;;;;;;;;5061793;28;20331;-65
2021/10/19 12:53:12;;;;;;;7.57;3.58;;;;;;;;;;5062085;28;20275;-64
2021/10/19 12:55:37;;;;;;;4.37;2.70;;;;;;;;;;5052656;28;20036;-64
2021/10/19 12:58:03;;;;;;;5.87;3.87;;;;;;;;;;5053463;28;20276;-64
2021/10/19 13:00:28;;;;;;;5.57;3.90;;;;;;;;;;5055958;28;20412;-64
2021/10/19 13:02:53;;;;;;;6.10;3.55;;;;;;;;;;5043466;28;20059;-66
2021/10/19 13:05:19;;;;;;;9.20;5.13;;;;;;;;;;5043602;28;20462;-67
2021/10/19 13:07:45;;;;;;;6.05;3.95;;;;;;;;;;5052488;28;20020;-68
2021/10/19 13:10:11;;;;;;;6.30;4.22;;;;;;;;;;5052258;28;20025;-68
2021/10/19 13:12:36;;;;;;;7.20;3.75;;;;;;;;;;5052083;28;20094;-68
2021/10/19 13:15:01;;;;;;;7.33;4.40;;;;;;;;;;5052254;28;20055;-68
2021/10/19 13:17:27;;;;;;;4.55;3.13;;;;;;;;;;5052127;28;20275;-68
2021/10/19 13:19:52;;;;;;;9.63;3.67;;;;;;;;;;5051856;28;20035;-68
2021/10/19 13:22:17;;;;;;;8.40;3.90;;;;;;;;;;5046018;28;20822;-68
2021/10/19 13:24:42;;;;;;;6.93;4.47;;;;;;;;;;5051515;28;20291;-67
2021/10/19 13:27:07;;;;;;;7.72;4.90;;;;;;;;;;5051621;28;20267;-67
2021/10/19 13:29:33;;;;;;;13.15;4.70;;;;;;;;;;5051302;28;20025;-67
2021/10/19 13:31:58;;;;;;;7.65;4.47;;;;;;;;;;5050860;28;20025;-67
2021/10/19 13:34:23;;;;;;;11.02;4.78;;;;;;;;;;5051837;28;20044;-66
2021/10/19 13:36:50;;;;;;;19.48;4.28;;;;;;;;;;5051803;28;20082;-65
2021/10/19 13:39:15;;;;;;;12.05;5.68;;;;;;;;;;5033353;28;20029;-64
2021/10/19 13:41:41;;;;;;;8.45;6.22;;;;;;;;;;5039184;28;20021;-65
2021/10/19 13:44:06;;;;;;;12.20;5.28;;;;;;;;;;5050554;28;20031;-66
2021/10/19 13:46:31;;;;;;;9.77;5.70;;;;;;;;;;5041257;28;20381;-67
2021/10/19 13:48:57;;;;;;;10.90;6.00;;;;;;;;;;5051283;28;20028;-66
2021/10/19 13:51:22;;;;;;;14.50;6.70;;;;;;;;;;5051677;28;20017;-66
2021/10/19 13:53:48;;;;;;;12.05;6.82;;;;;;;;;;5050661;28;20060;-67
2021/10/19 13:56:13;;;;;;;12.00;7.18;;;;;;;;;;5050548;28;20320;-65
2021/10/19 13:58:38;;;;;;;12.85;6.82;;;;;;;;;;5049730;28;20048;-67
2021/10/19 14:01:03;;;;;;;17.27;7.03;;;;;;;;;;5045840;28;20025;-66
2021/10/19 14:03:29;;;;;;;15.40;8.03;;;;;;;;;;5047250;28;20744;-65
2021/10/19 14:05:54;;;;;;;13.30;5.97;;;;;;;;;;5051004;28;20361;-65
2021/10/19 14:08:19;;;;;;;12.13;5.47;;;;;;;;;;5050916;28;20115;-65
2021/10/19 14:10:44;;;;;;;15.85;7.88;;;;;;;;;;5033258;28;20399;-66
2021/10/19 14:13:10;;;;;;;13.10;4.22;;;;;;;;;;5049666;28;20017;-66
2021/10/19 14:15:35;;;;;;;10.15;7.03;;;;;;;;;;5050852;28;20020;-66
2021/10/19 14:18:00;;;;;;;13.32;7.10;;;;;;;;;;5050530;28;20024;-67
2021/10/19 14:20:26;;;;;;;11.95;7.03;;;;;;;;;;5051081;28;20036;-67
2021/10/19 14:22:51;;;;;;;12.52;6.93;;;;;;;;;;5041482;28;20120;-65
2021/10/19 14:25:16;;;;;;;14.32;8.15;;;;;;;;;;5048795;28;20407;-67